sensor_id;sensor_type;location;lat;lon;timestamp;P1;durP1;ratioP1;P2;durP2;ratioP2
8268;SDS011;4174;48.304;16.364;2022-12-24T00:02:24;26.37;;;12.83;;
8268;SDS011;4174;48.304;16.364;2022-12-24T00:08:27;24.47;;;12.20;;
8268;SDS011;4174;48.304;16.364;2022-12-24T00:14:31;23.25;;;11.55;;
8268;SDS011;4174;48.304;16.364;2022-12-24T00:20:34;22.03;;;10.73;;
8268;SDS011;4174;48.304;16.364;2022-12-24T00:26:38;17.50;;;8.17;;
8268;SDS011;4174;48.304;16.364;2022-12-24T00:32:42;5.60;;;2.00;;
8268;SDS011;4174;48.304;16.364;2022-12-24T00:38:45;5.33;;;1.87;;
8268;SDS011;4174;48.304;16.364;2022-12-24T00:44:48;5.30;;;1.30;;
8268;SDS011;4174;48.304;16.364;2022-12-24T00:50:52;3.90;;;1.20;;
8268;SDS011;4174;48.304;16.364;2022-12-24T00:56:56;3.80;;;0.95;;
8268;SDS011;4174;48.304;16.364;2022-12-24T01:02:59;5.07;;;1.00;;
8268;SDS011;4174;48.304;16.364;2022-12-24T01:09:03;3.93;;;0.80;;
8268;SDS011;4174;48.304;16.364;2022-12-24T01:15:08;3.90;;;0.90;;
8268;SDS011;4174;48.304;16.364;2022-12-24T01:21:11;3.90;;;0.80;;
8268;SDS011;4174;48.304;16.364;2022-12-24T01:27:16;3.20;;;0.70;;
8268;SDS011;4174;48.304;16.364;2022-12-24T01:33:19;4.55;;;0.70;;
8268;SDS011;4174;48.304;16.364;2022-12-24T01:39:23;3.53;;;0.80;;
8268;SDS011;4174;48.304;16.364;2022-12-24T01:51:47;2.97;;;0.60;;
8268;SDS011;4174;48.304;16.364;2022-12-24T01:57:51;3.55;;;0.70;;
8268;SDS011;4174;48.304;16.364;2022-12-24T02:03:53;2.90;;;0.60;;
8268;SDS011;4174;48.304;16.364;2022-12-24T02:09:57;3.23;;;0.60;;
8268;SDS011;4174;48.304;16.364;2022-12-24T02:16:07;2.40;;;0.43;;
8268;SDS011;4174;48.304;16.364;2022-12-24T02:22:16;2.03;;;0.40;;
8268;SDS011;4174;48.304;16.364;2022-12-24T02:28:27;2.53;;;0.43;;
8268;SDS011;4174;48.304;16.364;2022-12-24T02:34:35;1.80;;;0.40;;
8268;SDS011;4174;48.304;16.364;2022-12-24T02:40:41;2.05;;;0.40;;
8268;SDS011;4174;48.304;16.364;2022-12-24T02:46:43;3.00;;;0.50;;
8268;SDS011;4174;48.304;16.364;2022-12-24T02:52:46;2.33;;;0.50;;
8268;SDS011;4174;48.304;16.364;2022-12-24T02:59:08;2.47;;;0.40;;
8268;SDS011;4174;48.304;16.364;2022-12-24T03:05:36;2.33;;;0.50;;
8268;SDS011;4174;48.304;16.364;2022-12-24T03:11:40;2.53;;;0.50;;
8268;SDS011;4174;48.304;16.364;2022-12-24T03:17:42;3.00;;;0.50;;
8268;SDS011;4174;48.304;16.364;2022-12-24T03:23:44;3.90;;;0.50;;
8268;SDS011;4174;48.304;16.364;2022-12-24T03:29:47;3.15;;;0.60;;
8268;SDS011;4174;48.304;16.364;2022-12-24T03:35:50;3.45;;;0.70;;
8268;SDS011;4174;48.304;16.364;2022-12-24T03:41:54;3.40;;;0.80;;
8268;SDS011;4174;48.304;16.364;2022-12-24T03:47:57;3.27;;;0.80;;
8268;SDS011;4174;48.304;16.364;2022-12-24T03:54:01;3.00;;;0.70;;
8268;SDS011;4174;48.304;16.364;2022-12-24T04:00:06;4.70;;;0.90;;
8268;SDS011;4174;48.304;16.364;2022-12-24T04:06:13;3.77;;;0.90;;
8268;SDS011;4174;48.304;16.364;2022-12-24T04:12:14;4.83;;;0.90;;
8268;SDS011;4174;48.304;16.364;2022-12-24T04:18:18;4.47;;;0.90;;
8268;SDS011;4174;48.304;16.364;2022-12-24T04:24:22;3.50;;;0.80;;
8268;SDS011;4174;48.304;16.364;2022-12-24T04:30:28;3.22;;;0.75;;
8268;SDS011;4174;48.304;16.364;2022-12-24T04:36:31;3.23;;;0.70;;
8268;SDS011;4174;48.304;16.364;2022-12-24T04:42:34;3.00;;;0.60;;
8268;SDS011;4174;48.304;16.364;2022-12-24T04:48:38;3.33;;;0.70;;
8268;SDS011;4174;48.304;16.364;2022-12-24T04:54:41;3.20;;;0.60;;
8268;SDS011;4174;48.304;16.364;2022-12-24T05:00:45;3.70;;;0.60;;
8268;SDS011;4174;48.304;16.364;2022-12-24T05:06:49;4.27;;;0.50;;
8268;SDS011;4174;48.304;16.364;2022-12-24T05:12:53;3.70;;;0.70;;
8268;SDS011;4174;48.304;16.364;2022-12-24T05:18:57;3.00;;;0.60;;
8268;SDS011;4174;48.304;16.364;2022-12-24T05:25:00;3.00;;;0.63;;
8268;SDS011;4174;48.304;16.364;2022-12-24T05:31:09;3.85;;;0.70;;
8268;SDS011;4174;48.304;16.364;2022-12-24T05:37:13;3.97;;;0.80;;
8268;SDS011;4174;48.304;16.364;2022-12-24T05:43:16;4.23;;;0.90;;
8268;SDS011;4174;48.304;16.364;2022-12-24T05:49:21;3.27;;;0.60;;
8268;SDS011;4174;48.304;16.364;2022-12-24T05:55:25;3.00;;;0.60;;
8268;SDS011;4174;48.304;16.364;2022-12-24T06:01:27;3.40;;;0.60;;
8268;SDS011;4174;48.304;16.364;2022-12-24T06:07:30;4.00;;;0.70;;
8268;SDS011;4174;48.304;16.364;2022-12-24T06:13:34;3.57;;;0.63;;
8268;SDS011;4174;48.304;16.364;2022-12-24T06:19:37;3.35;;;0.70;;
8268;SDS011;4174;48.304;16.364;2022-12-24T06:25:40;3.00;;;0.70;;
8268;SDS011;4174;48.304;16.364;2022-12-24T06:31:44;4.43;;;0.70;;
8268;SDS011;4174;48.304;16.364;2022-12-24T06:37:48;3.70;;;0.80;;
8268;SDS011;4174;48.304;16.364;2022-12-24T06:43:51;3.77;;;0.90;;
8268;SDS011;4174;48.304;16.364;2022-12-24T06:49:55;3.03;;;0.62;;
8268;SDS011;4174;48.304;16.364;2022-12-24T06:56:08;3.23;;;0.80;;
8268;SDS011;4174;48.304;16.364;2022-12-24T07:02:12;4.30;;;0.90;;
8268;SDS011;4174;48.304;16.364;2022-12-24T07:08:16;4.40;;;0.90;;
8268;SDS011;4174;48.304;16.364;2022-12-24T07:14:19;4.33;;;1.10;;
8268;SDS011;4174;48.304;16.364;2022-12-24T07:20:24;5.23;;;0.80;;
8268;SDS011;4174;48.304;16.364;2022-12-24T07:26:28;5.82;;;0.98;;
8268;SDS011;4174;48.304;16.364;2022-12-24T07:32:31;5.10;;;0.80;;
8268;SDS011;4174;48.304;16.364;2022-12-24T07:38:36;3.33;;;0.73;;
8268;SDS011;4174;48.304;16.364;2022-12-24T07:44:38;3.70;;;0.70;;
8268;SDS011;4174;48.304;16.364;2022-12-24T07:50:42;4.17;;;0.90;;
8268;SDS011;4174;48.304;16.364;2022-12-24T07:56:46;3.70;;;0.80;;
8268;SDS011;4174;48.304;16.364;2022-12-24T08:02:49;5.77;;;1.20;;
8268;SDS011;4174;48.304;16.364;2022-12-24T08:08:53;8.37;;;1.27;;
8268;SDS011;4174;48.304;16.364;2022-12-24T08:14:56;4.50;;;1.00;;
8268;SDS011;4174;48.304;16.364;2022-12-24T08:21:00;5.07;;;1.00;;
8268;SDS011;4174;48.304;16.364;2022-12-24T08:27:03;4.43;;;1.00;;
8268;SDS011;4174;48.304;16.364;2022-12-24T08:33:08;5.90;;;1.20;;
8268;SDS011;4174;48.304;16.364;2022-12-24T08:39:11;4.80;;;1.00;;
8268;SDS011;4174;48.304;16.364;2022-12-24T08:45:16;6.18;;;1.05;;
8268;SDS011;4174;48.304;16.364;2022-12-24T08:51:20;4.85;;;1.00;;
8268;SDS011;4174;48.304;16.364;2022-12-24T08:57:24;4.40;;;0.90;;
8268;SDS011;4174;48.304;16.364;2022-12-24T09:03:28;5.55;;;1.40;;
8268;SDS011;4174;48.304;16.364;2022-12-24T09:09:32;5.20;;;1.17;;
8268;SDS011;4174;48.304;16.364;2022-12-24T09:15:35;4.78;;;1.12;;
8268;SDS011;4174;48.304;16.364;2022-12-24T09:21:39;4.40;;;0.82;;
8268;SDS011;4174;48.304;16.364;2022-12-24T09:27:43;4.07;;;0.90;;
8268;SDS011;4174;48.304;16.364;2022-12-24T09:33:47;3.70;;;0.80;;
8268;SDS011;4174;48.304;16.364;2022-12-24T09:39:51;3.90;;;0.90;;
8268;SDS011;4174;48.304;16.364;2022-12-24T09:46:02;4.95;;;1.08;;
8268;SDS011;4174;48.304;16.364;2022-12-24T09:52:26;4.40;;;1.00;;
8268;SDS011;4174;48.304;16.364;2022-12-24T09:58:31;3.83;;;0.80;;
8268;SDS011;4174;48.304;16.364;2022-12-24T10:04:32;5.32;;;0.90;;
8268;SDS011;4174;48.304;16.364;2022-12-24T10:10:39;4.68;;;1.10;;
8268;SDS011;4174;48.304;16.364;2022-12-24T10:17:02;4.20;;;0.90;;
8268;SDS011;4174;48.304;16.364;2022-12-24T10:23:22;5.40;;;1.00;;
8268;SDS011;4174;48.304;16.364;2022-12-24T10:29:41;5.37;;;1.00;;
8268;SDS011;4174;48.304;16.364;2022-12-24T10:35:44;4.87;;;0.90;;
8268;SDS011;4174;48.304;16.364;2022-12-24T10:41:46;5.23;;;1.10;;
8268;SDS011;4174;48.304;16.364;2022-12-24T10:47:51;5.12;;;1.10;;
8268;SDS011;4174;48.304;16.364;2022-12-24T10:54:04;6.20;;;1.30;;
8268;SDS011;4174;48.304;16.364;2022-12-24T11:00:17;5.70;;;1.20;;
8268;SDS011;4174;48.304;16.364;2022-12-24T11:06:19;4.90;;;1.20;;
8268;SDS011;4174;48.304;16.364;2022-12-24T11:12:25;8.60;;;1.30;;
8268;SDS011;4174;48.304;16.364;2022-12-24T11:18:27;5.00;;;1.20;;
8268;SDS011;4174;48.304;16.364;2022-12-24T11:24:32;6.57;;;1.10;;
8268;SDS011;4174;48.304;16.364;2022-12-24T11:30:37;8.53;;;1.40;;
8268;SDS011;4174;48.304;16.364;2022-12-24T11:36:41;5.68;;;1.20;;
8268;SDS011;4174;48.304;16.364;2022-12-24T11:42:45;4.93;;;1.10;;
8268;SDS011;4174;48.304;16.364;2022-12-24T11:48:48;5.53;;;1.30;;
8268;SDS011;4174;48.304;16.364;2022-12-24T11:54:56;5.13;;;1.20;;
8268;SDS011;4174;48.304;16.364;2022-12-24T12:01:25;6.57;;;1.20;;
8268;SDS011;4174;48.304;16.364;2022-12-24T12:07:38;6.53;;;1.50;;
8268;SDS011;4174;48.304;16.364;2022-12-24T12:13:40;5.57;;;1.50;;
8268;SDS011;4174;48.304;16.364;2022-12-24T12:19:44;6.15;;;1.20;;
8268;SDS011;4174;48.304;16.364;2022-12-24T12:25:50;5.47;;;1.17;;
8268;SDS011;4174;48.304;16.364;2022-12-24T12:31:54;5.70;;;1.20;;
8268;SDS011;4174;48.304;16.364;2022-12-24T12:37:57;5.60;;;1.20;;
8268;SDS011;4174;48.304;16.364;2022-12-24T12:44:10;4.90;;;1.10;;
8268;SDS011;4174;48.304;16.364;2022-12-24T12:50:24;5.30;;;1.05;;
8268;SDS011;4174;48.304;16.364;2022-12-24T12:56:47;5.10;;;1.10;;
8268;SDS011;4174;48.304;16.364;2022-12-24T13:02:58;3.80;;;1.00;;
8268;SDS011;4174;48.304;16.364;2022-12-24T13:09:44;6.17;;;1.20;;
8268;SDS011;4174;48.304;16.364;2022-12-24T13:16:19;6.00;;;1.20;;
8268;SDS011;4174;48.304;16.364;2022-12-24T13:22:46;5.60;;;1.30;;
8268;SDS011;4174;48.304;16.364;2022-12-24T13:28:51;5.13;;;1.50;;
8268;SDS011;4174;48.304;16.364;2022-12-24T13:35:00;9.73;;;2.65;;
8268;SDS011;4174;48.304;16.364;2022-12-24T13:47:26;5.00;;;0.97;;
8268;SDS011;4174;48.304;16.364;2022-12-24T13:53:40;4.97;;;1.00;;
8268;SDS011;4174;48.304;16.364;2022-12-24T13:59:36;4.45;;;1.00;;
8268;SDS011;4174;48.304;16.364;2022-12-24T14:05:45;4.57;;;0.90;;
8268;SDS011;4174;48.304;16.364;2022-12-24T14:12:13;5.27;;;0.90;;
8268;SDS011;4174;48.304;16.364;2022-12-24T14:18:17;5.67;;;1.13;;
8268;SDS011;4174;48.304;16.364;2022-12-24T14:24:24;4.00;;;0.90;;
8268;SDS011;4174;48.304;16.364;2022-12-24T14:30:27;5.03;;;1.20;;
8268;SDS011;4174;48.304;16.364;2022-12-24T14:36:30;5.83;;;1.10;;
8268;SDS011;4174;48.304;16.364;2022-12-24T14:42:43;4.83;;;1.10;;
8268;SDS011;4174;48.304;16.364;2022-12-24T14:49:06;4.85;;;1.25;;
8268;SDS011;4174;48.304;16.364;2022-12-24T14:55:28;5.20;;;1.17;;
8268;SDS011;4174;48.304;16.364;2022-12-24T15:01:32;5.00;;;1.20;;
8268;SDS011;4174;48.304;16.364;2022-12-24T15:07:37;5.40;;;1.20;;
8268;SDS011;4174;48.304;16.364;2022-12-24T15:13:39;6.15;;;1.30;;
8268;SDS011;4174;48.304;16.364;2022-12-24T15:19:42;4.97;;;1.00;;
8268;SDS011;4174;48.304;16.364;2022-12-24T15:25:45;5.50;;;1.40;;
8268;SDS011;4174;48.304;16.364;2022-12-24T15:31:53;5.53;;;1.30;;
8268;SDS011;4174;48.304;16.364;2022-12-24T15:37:58;4.80;;;1.20;;
8268;SDS011;4174;48.304;16.364;2022-12-24T15:44:01;5.20;;;1.33;;
8268;SDS011;4174;48.304;16.364;2022-12-24T15:50:36;4.90;;;1.30;;
8268;SDS011;4174;48.304;16.364;2022-12-24T15:56:43;6.13;;;1.50;;
8268;SDS011;4174;48.304;16.364;2022-12-24T16:02:45;6.30;;;1.50;;
8268;SDS011;4174;48.304;16.364;2022-12-24T16:08:50;4.82;;;1.20;;
8268;SDS011;4174;48.304;16.364;2022-12-24T16:14:55;5.40;;;1.40;;
8268;SDS011;4174;48.304;16.364;2022-12-24T16:20:58;8.30;;;1.50;;
8268;SDS011;4174;48.304;16.364;2022-12-24T16:27:01;6.90;;;1.50;;
8268;SDS011;4174;48.304;16.364;2022-12-24T16:33:03;6.80;;;1.67;;
8268;SDS011;4174;48.304;16.364;2022-12-24T16:39:12;7.53;;;1.80;;
8268;SDS011;4174;48.304;16.364;2022-12-24T16:45:23;7.37;;;1.40;;
8268;SDS011;4174;48.304;16.364;2022-12-24T16:51:26;7.97;;;1.90;;
8268;SDS011;4174;48.304;16.364;2022-12-24T16:57:31;6.57;;;1.87;;
8268;SDS011;4174;48.304;16.364;2022-12-24T17:03:32;8.73;;;1.80;;
8268;SDS011;4174;48.304;16.364;2022-12-24T17:09:36;5.70;;;1.70;;
8268;SDS011;4174;48.304;16.364;2022-12-24T17:15:40;7.23;;;1.70;;
8268;SDS011;4174;48.304;16.364;2022-12-24T17:21:42;6.43;;;1.60;;
8268;SDS011;4174;48.304;16.364;2022-12-24T17:27:44;7.13;;;1.87;;
8268;SDS011;4174;48.304;16.364;2022-12-24T17:33:49;6.50;;;1.60;;
8268;SDS011;4174;48.304;16.364;2022-12-24T17:39:51;7.53;;;2.12;;
8268;SDS011;4174;48.304;16.364;2022-12-24T17:45:55;7.30;;;2.33;;
8268;SDS011;4174;48.304;16.364;2022-12-24T17:51:58;6.37;;;2.20;;
8268;SDS011;4174;48.304;16.364;2022-12-24T17:58:02;7.20;;;2.40;;
8268;SDS011;4174;48.304;16.364;2022-12-24T18:04:06;7.43;;;2.57;;
8268;SDS011;4174;48.304;16.364;2022-12-24T18:10:10;10.43;;;3.00;;
8268;SDS011;4174;48.304;16.364;2022-12-24T18:16:18;6.57;;;2.00;;
8268;SDS011;4174;48.304;16.364;2022-12-24T18:22:26;8.15;;;2.42;;
8268;SDS011;4174;48.304;16.364;2022-12-24T18:28:30;7.87;;;2.60;;
8268;SDS011;4174;48.304;16.364;2022-12-24T18:34:32;10.23;;;3.47;;
8268;SDS011;4174;48.304;16.364;2022-12-24T18:40:35;8.37;;;2.40;;
8268;SDS011;4174;48.304;16.364;2022-12-24T18:46:40;8.40;;;2.30;;
8268;SDS011;4174;48.304;16.364;2022-12-24T18:52:42;8.10;;;2.10;;
8268;SDS011;4174;48.304;16.364;2022-12-24T18:58:46;6.63;;;2.23;;
8268;SDS011;4174;48.304;16.364;2022-12-24T19:04:49;6.90;;;2.20;;
8268;SDS011;4174;48.304;16.364;2022-12-24T19:10:53;8.07;;;2.10;;
8268;SDS011;4174;48.304;16.364;2022-12-24T19:16:58;11.27;;;4.10;;
8268;SDS011;4174;48.304;16.364;2022-12-24T19:23:02;7.62;;;2.03;;
8268;SDS011;4174;48.304;16.364;2022-12-24T19:29:05;9.10;;;2.13;;
8268;SDS011;4174;48.304;16.364;2022-12-24T19:35:09;8.00;;;2.28;;
8268;SDS011;4174;48.304;16.364;2022-12-24T19:41:14;7.73;;;2.40;;
8268;SDS011;4174;48.304;16.364;2022-12-24T19:47:17;9.83;;;2.80;;
8268;SDS011;4174;48.304;16.364;2022-12-24T19:53:21;6.73;;;2.20;;
8268;SDS011;4174;48.304;16.364;2022-12-24T19:59:26;8.10;;;2.67;;
8268;SDS011;4174;48.304;16.364;2022-12-24T20:05:30;9.20;;;2.60;;
8268;SDS011;4174;48.304;16.364;2022-12-24T20:11:34;8.90;;;2.50;;
8268;SDS011;4174;48.304;16.364;2022-12-24T20:17:37;7.90;;;2.57;;
8268;SDS011;4174;48.304;16.364;2022-12-24T20:23:41;6.73;;;2.20;;
8268;SDS011;4174;48.304;16.364;2022-12-24T20:29:46;6.77;;;2.27;;
8268;SDS011;4174;48.304;16.364;2022-12-24T20:35:51;8.85;;;2.40;;
8268;SDS011;4174;48.304;16.364;2022-12-24T20:41:54;7.20;;;2.10;;
8268;SDS011;4174;48.304;16.364;2022-12-24T20:47:58;8.70;;;2.37;;
8268;SDS011;4174;48.304;16.364;2022-12-24T20:54:02;7.53;;;2.40;;
8268;SDS011;4174;48.304;16.364;2022-12-24T21:00:08;8.13;;;2.60;;
8268;SDS011;4174;48.304;16.364;2022-12-24T21:06:15;7.47;;;2.12;;
8268;SDS011;4174;48.304;16.364;2022-12-24T21:12:18;7.90;;;2.50;;
8268;SDS011;4174;48.304;16.364;2022-12-24T21:18:27;8.67;;;2.50;;
8268;SDS011;4174;48.304;16.364;2022-12-24T21:24:31;8.40;;;2.80;;
8268;SDS011;4174;48.304;16.364;2022-12-24T21:30:36;9.00;;;2.73;;
8268;SDS011;4174;48.304;16.364;2022-12-24T21:36:39;7.27;;;1.90;;
8268;SDS011;4174;48.304;16.364;2022-12-24T21:42:43;9.35;;;3.65;;
8268;SDS011;4174;48.304;16.364;2022-12-24T21:48:48;9.40;;;2.90;;
8268;SDS011;4174;48.304;16.364;2022-12-24T21:54:57;7.65;;;2.28;;
8268;SDS011;4174;48.304;16.364;2022-12-24T22:01:06;8.90;;;2.20;;
8268;SDS011;4174;48.304;16.364;2022-12-24T22:13:27;8.00;;;2.20;;
8268;SDS011;4174;48.304;16.364;2022-12-24T22:19:29;10.63;;;2.53;;
8268;SDS011;4174;48.304;16.364;2022-12-24T22:25:32;9.33;;;2.80;;
8268;SDS011;4174;48.304;16.364;2022-12-24T22:31:35;7.80;;;2.10;;
8268;SDS011;4174;48.304;16.364;2022-12-24T22:37:38;7.37;;;2.03;;
8268;SDS011;4174;48.304;16.364;2022-12-24T22:43:42;7.80;;;2.10;;
8268;SDS011;4174;48.304;16.364;2022-12-24T22:49:46;8.03;;;1.93;;
8268;SDS011;4174;48.304;16.364;2022-12-24T22:55:53;6.80;;;1.65;;
8268;SDS011;4174;48.304;16.364;2022-12-24T23:01:56;7.78;;;1.50;;
8268;SDS011;4174;48.304;16.364;2022-12-24T23:07:59;6.72;;;1.50;;
8268;SDS011;4174;48.304;16.364;2022-12-24T23:14:04;8.32;;;1.60;;
8268;SDS011;4174;48.304;16.364;2022-12-24T23:20:13;7.37;;;1.75;;
8268;SDS011;4174;48.304;16.364;2022-12-24T23:26:19;7.68;;;1.65;;
8268;SDS011;4174;48.304;16.364;2022-12-24T23:32:20;6.60;;;1.70;;
8268;SDS011;4174;48.304;16.364;2022-12-24T23:38:23;6.77;;;1.80;;
8268;SDS011;4174;48.304;16.364;2022-12-24T23:44:28;9.55;;;1.75;;
8268;SDS011;4174;48.304;16.364;2022-12-24T23:50:32;8.03;;;1.90;;
8268;SDS011;4174;48.304;16.364;2022-12-24T23:56:36;7.60;;;1.70;;
